< < Back
Terminal Aerodrome Forecast


Current Version              Previous Versions:   1  2  3  4  5  6  7  8  9  

Terminal Aerodrome Forecast

578
FTUS42 KGSP 200500
TAFGSP
TAF
KGSP 200520Z 2006/2106 00000KT P6SM SCT250
      TEMPO 2009/2013 5SM BR BKN040
     FM201300 35003KT P6SM SCT060
     FM202000 26006KT P6SM SCT060
     FM210300 30003KT P6SM SCT060=



Latest METAR

043
SAUS70 KWBC 202200 RRF
MTRGSP
METAR KGSP 202153Z 15005KT 10SM CLR 29/23 A2999 RMK AO2 LTG DSNT W AND
NW SLP143 T02940233


USA.gov is the U.S. government's official web portal to all federal, state and local government web resources and services.